Peterculter, United Kingdom
Current Conditions -  °F | °C
As of 9:50 PM on Saturday 27 Dec 2014 (Local Time) from EGPD Reporting Station
Scattered Clouds Scattered Clouds  
Wind Chill: 28°   Ceiling: Unl
Heat Index: 36°   Visibility: 6mi
Dew Point: 34°   Wind: 10mph
Humidity: 93%   Direction: 300°WNW
Pressure: 30.09"   Gusts: NA
Location:  57.1°N, 2.27°W
Report Text: EGPD 272150Z 30009KT 9999 SCT014 02/01 Q1019 NOSIG
Loading
Personal Weather Stations






























Interactive Weather Map New forecast layout! Learn more

10-Day Weather Forecast

Advertisements
Track Severe Weather on mobile